Time;durP1;ratioP1;P1;durP2;ratioP2;P2;SDS_P1;SDS_P2;PMS_P1;PMS_P2;Temp;Humidity;BMP_temperature;BMP_pressure;BME280_temperature;BME280_humidity;BME280_pressure;Samples;Min_cycle;Max_cycle;Signal;HPM_P1;HPM_P2
2021/09/25 00:02:00;;;;;;;8.23;3.67;;;17.10;99.90;;;;;;5088469;28;20067;-71
2021/09/25 00:04:26;;;;;;;12.77;4.35;;;17.10;99.90;;;;;;5082035;28;20247;-72
2021/09/25 00:06:52;;;;;;;14.65;4.55;;;17.10;99.90;;;;;;5088302;28;20136;-72
2021/09/25 00:09:19;;;;;;;11.38;4.43;;;17.10;99.90;;;;;;5087809;28;20048;-71
2021/09/25 00:11:44;;;;;;;9.85;3.72;;;17.10;99.90;;;;;;5071729;28;20071;-71
2021/09/25 00:14:10;;;;;;;12.60;4.07;;;17.10;99.90;;;;;;5086859;28;20161;-72
2021/09/25 00:16:36;;;;;;;14.93;4.47;;;17.10;99.90;;;;;;5084403;28;20039;-72
2021/09/25 00:19:03;;;;;;;11.02;4.43;;;17.10;99.90;;;;;;5088733;28;20048;-72
2021/09/25 00:21:29;;;;;;;12.70;4.10;;;17.10;99.90;;;;;;5086264;28;20123;-72
2021/09/25 00:23:55;;;;;;;10.68;3.95;;;17.10;99.90;;;;;;5087143;28;20032;-72
2021/09/25 00:26:21;;;;;;;10.90;4.40;;;17.10;99.90;;;;;;5086287;28;20044;-72
2021/09/25 00:28:47;;;;;;;8.45;3.72;;;17.00;99.90;;;;;;5085427;28;20035;-71
2021/09/25 00:31:12;;;;;;;11.43;4.32;;;17.10;99.90;;;;;;5074096;28;20048;-71
2021/09/25 00:33:38;;;;;;;10.50;4.30;;;17.00;99.90;;;;;;5082645;28;20074;-72
2021/09/25 00:36:04;;;;;;;11.15;4.78;;;17.00;99.90;;;;;;5080127;28;20032;-71
2021/09/25 00:38:30;;;;;;;12.43;3.95;;;17.00;99.90;;;;;;5087668;28;20036;-71
2021/09/25 00:40:56;;;;;;;12.13;4.32;;;17.00;99.90;;;;;;5063932;28;20499;-71
2021/09/25 00:43:21;;;;;;;15.52;4.22;;;17.00;99.90;;;;;;5087078;28;20386;-71
2021/09/25 00:45:47;;;;;;;10.77;4.68;;;17.00;99.90;;;;;;5086556;28;20040;-71
2021/09/25 00:48:13;;;;;;;12.70;4.72;;;17.00;99.90;;;;;;5088234;28;20056;-71
2021/09/25 00:50:39;;;;;;;11.77;4.53;;;17.00;99.90;;;;;;5089714;28;20115;-71
2021/09/25 00:53:04;;;;;;;11.02;4.40;;;17.00;99.90;;;;;;5087907;28;20048;-71
2021/09/25 00:55:30;;;;;;;12.20;5.35;;;16.90;99.90;;;;;;5087622;28;20051;-71
2021/09/25 00:58:02;;;;;;;13.13;4.85;;;16.90;99.90;;;;;;5079402;28;20131;-71
2021/09/25 01:00:28;;;;;;;;;;;17.00;99.90;;;;;;5087586;28;20071;-71
2021/09/25 01:02:54;;;;;;;11.13;4.72;;;16.90;99.90;;;;;;5081326;28;19923;-71
2021/09/25 01:05:21;;;;;;;11.75;4.38;;;16.90;99.90;;;;;;5074501;28;20040;-71
2021/09/25 01:07:47;;;;;;;14.63;4.60;;;16.90;99.90;;;;;;5091622;28;20036;-71
2021/09/25 01:10:14;;;;;;;12.77;4.88;;;16.90;99.90;;;;;;5091975;28;20048;-71
2021/09/25 01:12:41;;;;;;;10.95;4.47;;;16.90;99.90;;;;;;5078160;28;20040;-71
2021/09/25 01:15:07;;;;;;;12.32;4.82;;;16.90;99.90;;;;;;5083795;28;20264;-73
2021/09/25 01:17:33;;;;;;;15.63;5.00;;;16.80;99.90;;;;;;5073446;28;20377;-73
2021/09/25 01:20:00;;;;;;;13.48;4.45;;;16.80;99.90;;;;;;5091017;28;20379;-73
2021/09/25 01:22:26;;;;;;;14.68;5.80;;;16.80;99.90;;;;;;5087072;28;20044;-72
2021/09/25 01:24:52;;;;;;;15.38;4.60;;;16.80;99.90;;;;;;5073762;28;20047;-72
2021/09/25 01:27:17;;;;;;;14.30;4.72;;;16.80;99.90;;;;;;5090710;28;20393;-72
2021/09/25 01:29:43;;;;;;;9.70;4.47;;;16.80;99.90;;;;;;5089287;28;20485;-72
2021/09/25 01:32:08;;;;;;;7.07;4.55;;;16.80;99.90;;;;;;5089016;28;20071;-72
2021/09/25 01:34:35;;;;;;;15.07;4.65;;;16.80;99.90;;;;;;5090714;28;20392;-71
2021/09/25 01:37:02;;;;;;;12.20;4.80;;;16.80;99.90;;;;;;5091895;28;20064;-71
2021/09/25 01:39:28;;;;;;;12.10;5.22;;;16.80;99.90;;;;;;5090733;28;20055;-71
2021/09/25 01:41:54;;;;;;;13.50;5.28;;;16.80;99.90;;;;;;5090836;28;20491;-71
2021/09/25 01:44:22;;;;;;;11.18;5.30;;;16.80;99.90;;;;;;5087416;28;20028;-71
2021/09/25 01:46:48;;;;;;;13.15;5.28;;;16.80;99.90;;;;;;5089640;28;20118;-71
2021/09/25 01:49:14;;;;;;;11.25;4.80;;;16.80;99.90;;;;;;5090358;28;20083;-71
2021/09/25 01:51:40;;;;;;;15.00;5.70;;;16.80;99.90;;;;;;5091480;28;20091;-71
2021/09/25 01:54:06;;;;;;;13.38;5.60;;;16.80;99.90;;;;;;5091083;28;20472;-71
2021/09/25 01:56:33;;;;;;;13.45;5.63;;;16.80;99.90;;;;;;5090214;28;20397;-71
2021/09/25 01:58:59;;;;;;;11.20;4.65;;;16.80;99.90;;;;;;5088665;28;20378;-71
2021/09/25 02:01:24;;;;;;;13.10;4.97;;;16.80;99.90;;;;;;5089336;28;20036;-71
2021/09/25 02:03:50;;;;;;;11.80;5.45;;;16.70;99.90;;;;;;5090029;28;20039;-71
2021/09/25 02:06:15;;;;;;;15.88;5.68;;;16.70;99.90;;;;;;5076348;28;20045;-71
2021/09/25 02:08:42;;;;;;;9.68;5.22;;;16.70;99.90;;;;;;5087216;28;20135;-71
2021/09/25 02:11:08;;;;;;;15.88;5.40;;;16.70;99.90;;;;;;5082800;28;20082;-71
2021/09/25 02:13:34;;;;;;;16.35;5.60;;;16.70;99.90;;;;;;5075345;28;20386;-71
2021/09/25 02:16:00;;;;;;;9.38;5.05;;;16.70;99.90;;;;;;5089125;28;20054;-71
2021/09/25 02:18:26;;;;;;;11.77;6.43;;;16.70;99.90;;;;;;5089591;28;20123;-71
2021/09/25 02:20:52;;;;;;;14.13;5.30;;;16.70;99.90;;;;;;5084787;28;20064;-71
2021/09/25 02:23:18;;;;;;;13.48;5.43;;;16.70;99.90;;;;;;5088943;28;20066;-71
2021/09/25 02:25:43;;;;;;;13.20;5.63;;;16.70;99.90;;;;;;5090737;28;20032;-71
2021/09/25 02:28:09;;;;;;;13.68;6.15;;;16.70;99.90;;;;;;5083685;28;20037;-71
2021/09/25 02:30:35;;;;;;;14.85;5.35;;;16.70;99.90;;;;;;5091601;28;20029;-71
2021/09/25 02:33:00;;;;;;;14.18;6.30;;;16.70;99.90;;;;;;5084912;28;20154;-71
2021/09/25 02:35:26;;;;;;;12.25;5.60;;;16.70;99.90;;;;;;5087667;28;20084;-71
2021/09/25 02:37:52;;;;;;;13.02;5.45;;;16.70;99.90;;;;;;5089068;28;20048;-71
2021/09/25 02:40:20;;;;;;;13.10;4.75;;;16.70;99.90;;;;;;5089791;28;20078;-72
2021/09/25 02:42:47;;;;;;;10.27;5.13;;;16.80;99.90;;;;;;5081952;28;20040;-71
2021/09/25 02:45:14;;;;;;;15.05;5.68;;;16.80;99.90;;;;;;5087536;28;20119;-71
2021/09/25 02:47:40;;;;;;;10.40;5.10;;;16.80;99.90;;;;;;5089525;28;20043;-71
2021/09/25 02:50:07;;;;;;;12.80;6.07;;;16.80;99.90;;;;;;5089497;28;20028;-71
2021/09/25 02:52:33;;;;;;;15.88;5.32;;;16.90;99.90;;;;;;5087533;28;20116;-71
2021/09/25 02:54:59;;;;;;;19.70;5.40;;;16.90;99.90;;;;;;5089949;28;20091;-71
2021/09/25 02:57:24;;;;;;;16.60;5.80;;;16.80;99.90;;;;;;5089981;28;20543;-71
2021/09/25 02:59:50;;;;;;;11.13;5.43;;;16.90;99.90;;;;;;5087965;28;20492;-71
2021/09/25 03:02:15;;;;;;;14.50;5.50;;;16.90;99.90;;;;;;5086592;28;20032;-71
2021/09/25 03:04:41;;;;;;;11.75;5.85;;;16.90;99.90;;;;;;5088666;28;20036;-71
2021/09/25 03:07:08;;;;;;;12.07;4.85;;;16.90;99.90;;;;;;5067609;28;20063;-71
2021/09/25 03:09:34;;;;;;;14.32;5.75;;;16.90;99.90;;;;;;5088582;28;20093;-71
2021/09/25 03:12:00;;;;;;;13.32;5.75;;;16.90;99.90;;;;;;5085892;28;20116;-71
2021/09/25 03:14:25;;;;;;;12.48;5.13;;;16.80;99.90;;;;;;5080597;28;20126;-71
2021/09/25 03:16:52;;;;;;;12.57;5.32;;;16.80;99.90;;;;;;5088874;28;20036;-71
2021/09/25 03:19:17;;;;;;;14.73;5.38;;;16.90;99.90;;;;;;5085143;28;20040;-71
2021/09/25 03:21:43;;;;;;;12.57;5.05;;;16.90;99.90;;;;;;5090159;28;20402;-71
2021/09/25 03:24:08;;;;;;;10.48;5.55;;;16.80;99.90;;;;;;5089781;28;20035;-71
2021/09/25 03:26:34;;;;;;;11.95;5.63;;;16.80;99.90;;;;;;5090513;28;20093;-72
2021/09/25 03:28:59;;;;;;;15.65;5.32;;;16.80;99.90;;;;;;5087768;28;20039;-71
2021/09/25 03:31:25;;;;;;;15.75;5.82;;;16.70;99.90;;;;;;5087971;28;20516;-71
2021/09/25 03:33:51;;;;;;;15.75;5.45;;;16.70;99.90;;;;;;5080997;28;20478;-72
2021/09/25 03:36:16;;;;;;;14.75;5.40;;;16.70;99.90;;;;;;5082899;28;20044;-71
2021/09/25 03:38:42;;;;;;;11.00;5.68;;;16.70;99.90;;;;;;5090053;28;20064;-71
2021/09/25 03:41:07;;;;;;;13.13;5.72;;;16.60;99.90;;;;;;5088379;28;20178;-72
2021/09/25 03:43:33;;;;;;;12.75;5.57;;;16.70;99.90;;;;;;5089780;28;20036;-71
2021/09/25 03:45:59;;;;;;;16.60;6.18;;;16.70;99.90;;;;;;5087271;28;20035;-72
2021/09/25 03:48:25;;;;;;;12.05;5.43;;;16.70;99.90;;;;;;5085699;28;20044;-72
2021/09/25 03:50:53;;;;;;;11.18;5.18;;;16.70;99.90;;;;;;5088651;28;20043;-72
2021/09/25 03:53:20;;;;;;;14.13;5.45;;;16.70;99.90;;;;;;5084748;28;20087;-72
2021/09/25 03:55:46;;;;;;;13.80;5.45;;;16.70;99.90;;;;;;5088512;28;20048;-72
2021/09/25 03:58:11;;;;;;;17.55;5.93;;;16.60;99.90;;;;;;5087192;28;20040;-72
2021/09/25 04:00:42;;;;;;;15.32;5.88;;;16.70;99.90;;;;;;5086666;28;20059;-71
2021/09/25 04:03:11;;;;;;;11.98;5.10;;;16.70;99.90;;;;;;5078712;28;20070;-71
2021/09/25 04:05:37;;;;;;;15.93;5.78;;;16.70;99.90;;;;;;5087369;28;20051;-71
2021/09/25 04:08:03;;;;;;;16.90;5.88;;;16.60;99.90;;;;;;5087886;28;20055;-71
2021/09/25 04:10:29;;;;;;;14.95;5.93;;;16.60;99.90;;;;;;5088241;28;20048;-71
2021/09/25 04:12:54;;;;;;;14.25;5.35;;;16.60;99.90;;;;;;5081271;28;20032;-71
2021/09/25 04:15:20;;;;;;;15.80;6.47;;;16.60;99.90;;;;;;5082732;28;20047;-71
2021/09/25 04:17:45;;;;;;;18.00;6.28;;;16.60;99.90;;;;;;5085745;28;20043;-71
2021/09/25 04:20:12;;;;;;;12.55;5.60;;;16.50;99.90;;;;;;5089171;28;20043;-72
2021/09/25 04:22:37;;;;;;;14.60;5.13;;;16.50;99.90;;;;;;5088636;28;20039;-71
2021/09/25 04:25:03;;;;;;;16.15;5.68;;;16.50;99.90;;;;;;5088781;28;20036;-71
2021/09/25 04:27:29;;;;;;;17.27;5.78;;;16.50;99.90;;;;;;5088767;28;20101;-71
2021/09/25 04:30:00;;;;;;;12.48;5.78;;;16.50;99.90;;;;;;5089781;28;20111;-71
2021/09/25 04:32:26;;;;;;;14.15;6.07;;;16.40;99.90;;;;;;5087180;28;20054;-71
2021/09/25 04:34:52;;;;;;;14.98;6.45;;;16.40;99.90;;;;;;5088176;28;20075;-69
2021/09/25 04:37:18;;;;;;;16.98;6.70;;;16.30;99.90;;;;;;5086447;28;20396;-69
2021/09/25 04:39:43;;;;;;;14.80;6.45;;;16.20;99.90;;;;;;5091212;28;20392;-69
2021/09/25 04:42:09;;;;;;;11.63;6.45;;;16.10;99.90;;;;;;5075702;28;20264;-69
2021/09/25 04:44:35;;;;;;;18.42;6.60;;;16.00;99.90;;;;;;5088156;28;20036;-69
2021/09/25 04:47:00;;;;;;;13.75;6.72;;;16.00;99.90;;;;;;5092743;28;20427;-69
2021/09/25 04:49:27;;;;;;;14.77;6.50;;;15.90;99.90;;;;;;5074779;28;20067;-69
2021/09/25 04:51:53;;;;;;;13.20;6.68;;;15.80;99.90;;;;;;5074826;28;20525;-69
2021/09/25 04:54:18;;;;;;;16.23;6.50;;;15.80;99.90;;;;;;5091384;28;20054;-69
2021/09/25 04:56:44;;;;;;;15.05;6.95;;;15.70;99.90;;;;;;5089467;28;20039;-69
2021/09/25 04:59:09;;;;;;;12.00;6.53;;;15.60;99.90;;;;;;5091541;28;20506;-69
2021/09/25 05:01:35;;;;;;;18.27;8.55;;;15.60;99.90;;;;;;5090863;28;20032;-69
2021/09/25 05:04:02;;;;;;;15.90;7.65;;;15.50;99.90;;;;;;5090976;28;20047;-69
2021/09/25 05:06:29;;;;;;;19.02;8.63;;;15.50;99.90;;;;;;5092050;28;20385;-69
2021/09/25 05:08:55;;;;;;;18.67;7.97;;;15.50;99.90;;;;;;5089956;28;20075;-69
2021/09/25 05:11:20;;;;;;;17.92;8.07;;;15.40;99.90;;;;;;5069621;28;20115;-69
2021/09/25 05:13:46;;;;;;;18.35;8.35;;;15.30;99.90;;;;;;5091733;28;20040;-69
2021/09/25 05:16:12;;;;;;;13.20;7.53;;;15.30;99.90;;;;;;5067386;28;20043;-69
2021/09/25 05:18:37;;;;;;;17.33;7.80;;;15.30;99.90;;;;;;5090135;28;20520;-69
2021/09/25 05:21:03;;;;;;;21.13;8.93;;;15.20;99.90;;;;;;5091090;28;20455;-69
2021/09/25 05:23:29;;;;;;;18.52;9.20;;;15.20;99.90;;;;;;5092079;28;20073;-69
2021/09/25 05:25:54;;;;;;;16.73;7.47;;;15.10;99.90;;;;;;5091722;28;20032;-69
2021/09/25 05:28:20;;;;;;;15.15;8.50;;;15.10;99.90;;;;;;5073938;28;20035;-69
2021/09/25 05:30:46;;;;;;;13.43;8.75;;;15.10;99.90;;;;;;5091552;28;20078;-71
2021/09/25 05:33:11;;;;;;;14.55;9.05;;;15.20;99.90;;;;;;5092942;28;20499;-71
2021/09/25 05:35:37;;;;;;;13.75;7.97;;;15.20;99.90;;;;;;5093051;28;20112;-71
2021/09/25 05:38:03;;;;;;;16.65;8.68;;;15.20;99.90;;;;;;5074631;28;20082;-72
2021/09/25 05:40:29;;;;;;;19.05;9.77;;;15.30;99.90;;;;;;5090706;28;20097;-73
2021/09/25 05:42:54;;;;;;;21.50;8.73;;;15.30;99.90;;;;;;5091434;28;20043;-72
2021/09/25 05:45:20;;;;;;;14.93;8.93;;;15.20;99.90;;;;;;5090925;28;20040;-72
2021/09/25 05:47:46;;;;;;;20.13;8.48;;;15.20;99.90;;;;;;5091114;28;20047;-72
2021/09/25 05:50:13;;;;;;;20.10;8.75;;;15.20;99.90;;;;;;5089887;28;20043;-72
2021/09/25 05:52:38;;;;;;;17.73;9.52;;;15.20;99.90;;;;;;5089593;28;20193;-72
2021/09/25 05:55:06;;;;;;;17.30;9.13;;;15.20;99.90;;;;;;5089516;28;20126;-72
2021/09/25 05:57:31;;;;;;;22.75;10.10;;;15.30;99.90;;;;;;5062745;28;20105;-72
2021/09/25 05:59:57;;;;;;;16.38;9.63;;;15.30;99.90;;;;;;5062022;28;20041;-72
2021/09/25 06:02:23;;;;;;;16.42;8.77;;;15.40;99.90;;;;;;5085347;28;20028;-72
2021/09/25 06:04:48;;;;;;;16.17;9.93;;;15.50;99.90;;;;;;5087525;28;20097;-72
2021/09/25 06:07:15;;;;;;;18.70;8.98;;;15.50;99.90;;;;;;5081055;28;20040;-72
2021/09/25 06:09:41;;;;;;;15.88;9.18;;;15.60;99.90;;;;;;5088890;28;20552;-72
2021/09/25 06:12:08;;;;;;;16.27;9.57;;;15.80;99.90;;;;;;5089903;28;20063;-72
2021/09/25 06:14:34;;;;;;;15.75;9.23;;;15.80;99.90;;;;;;5085642;28;20467;-72
2021/09/25 06:17:00;;;;;;;19.13;9.48;;;16.00;99.90;;;;;;5086791;28;20039;-72
2021/09/25 06:19:26;;;;;;;17.67;9.55;;;16.00;99.90;;;;;;5089876;28;20040;-73
2021/09/25 06:21:53;;;;;;;15.68;9.13;;;16.30;99.90;;;;;;5089393;28;20039;-73
2021/09/25 06:24:18;;;;;;;16.05;9.85;;;16.40;99.90;;;;;;5088508;28;20382;-73
2021/09/25 06:26:44;;;;;;;14.80;9.10;;;16.60;99.90;;;;;;5089428;28;20036;-72
2021/09/25 06:29:10;;;;;;;19.60;9.35;;;16.90;99.90;;;;;;5068573;28;20487;-73
2021/09/25 06:31:36;;;;;;;16.38;8.52;;;17.10;99.90;;;;;;5082887;28;20068;-72
2021/09/25 06:34:02;;;;;;;21.05;9.43;;;17.10;99.90;;;;;;5072664;28;20123;-71
2021/09/25 06:36:27;;;;;;;15.30;9.00;;;17.10;99.90;;;;;;5079896;28;20089;-71
2021/09/25 06:38:53;;;;;;;15.43;8.95;;;17.10;99.90;;;;;;5088436;28;20127;-71
2021/09/25 06:41:19;;;;;;;16.13;9.63;;;17.00;99.90;;;;;;5076061;28;20074;-72
2021/09/25 06:43:45;;;;;;;18.30;9.27;;;17.10;99.90;;;;;;5088924;28;20528;-71
2021/09/25 06:46:13;;;;;;;18.80;9.60;;;17.40;99.90;;;;;;5077317;28;20486;-72
2021/09/25 06:48:39;;;;;;;17.55;9.43;;;17.90;99.90;;;;;;5076892;28;20280;-72
2021/09/25 06:51:06;;;;;;;13.93;9.45;;;18.20;99.90;;;;;;5079314;28;20051;-71
2021/09/25 06:53:31;;;;;;;14.57;8.82;;;18.70;99.90;;;;;;5077070;28;20097;-73
2021/09/25 06:55:57;;;;;;;15.63;8.80;;;18.80;99.90;;;;;;5078765;28;20044;-72
2021/09/25 06:58:22;;;;;;;13.35;8.60;;;18.90;99.90;;;;;;5069681;28;20048;-72
2021/09/25 07:00:49;;;;;;;20.45;9.20;;;18.80;99.90;;;;;;5083230;28;20044;-72
2021/09/25 07:03:17;;;;;;;14.93;8.43;;;18.80;99.90;;;;;;5086674;28;20072;-72
2021/09/25 07:05:43;;;;;;;19.00;9.45;;;18.70;99.90;;;;;;5085859;28;20507;-72
2021/09/25 07:08:09;;;;;;;28.67;10.63;;;19.00;99.90;;;;;;5086710;28;20051;-72
2021/09/25 07:10:36;;;;;;;18.13;9.10;;;19.30;99.90;;;;;;5063193;28;20135;-72
2021/09/25 07:13:02;;;;;;;17.88;8.88;;;19.80;99.90;;;;;;5087128;28;20047;-72
2021/09/25 07:15:28;;;;;;;16.25;8.52;;;20.00;99.90;;;;;;5086739;28;20075;-71
2021/09/25 07:17:53;;;;;;;18.58;9.95;;;20.00;99.90;;;;;;5087665;28;20082;-71
2021/09/25 07:20:19;;;;;;;17.98;9.80;;;19.70;99.90;;;;;;5080086;28;20032;-71
2021/09/25 07:22:46;;;;;;;12.73;8.60;;;19.60;99.90;;;;;;5072402;28;20398;-71
2021/09/25 07:25:12;;;;;;;13.60;8.63;;;19.50;99.90;;;;;;5083006;28;20044;-71
2021/09/25 07:27:39;;;;;;;12.90;8.55;;;19.40;99.90;;;;;;5087379;28;20426;-71
2021/09/25 07:30:06;;;;;;;16.98;8.57;;;19.30;99.90;;;;;;5085057;28;20446;-68
2021/09/25 07:32:32;;;;;;;15.88;9.40;;;19.20;99.90;;;;;;5057911;28;20461;-68
2021/09/25 07:34:57;;;;;;;16.77;10.20;;;19.10;99.90;;;;;;5086185;28;20046;-68
2021/09/25 07:37:23;;;;;;;20.45;10.30;;;18.90;99.90;;;;;;5087073;28;20508;-68
2021/09/25 07:39:48;;;;;;;16.40;9.68;;;18.80;99.90;;;;;;5089254;28;20047;-68
2021/09/25 07:42:15;;;;;;;16.20;9.27;;;18.80;99.90;;;;;;5084098;28;20040;-67
2021/09/25 07:44:40;;;;;;;16.67;9.07;;;18.70;99.90;;;;;;5070257;28;20040;-73
2021/09/25 07:47:06;;;;;;;22.42;9.93;;;18.70;99.90;;;;;;5088884;28;20067;-68
2021/09/25 07:49:32;;;;;;;18.90;9.88;;;18.60;99.90;;;;;;5070738;28;20032;-68
2021/09/25 07:51:57;;;;;;;17.48;9.90;;;18.70;99.90;;;;;;5086716;28;20494;-68
2021/09/25 07:54:23;;;;;;;19.88;10.73;;;18.60;99.90;;;;;;5088903;28;20044;-68
2021/09/25 07:56:48;;;;;;;15.13;8.93;;;18.70;99.90;;;;;;5070993;28;20121;-68
2021/09/25 07:59:14;;;;;;;21.02;10.68;;;18.70;99.90;;;;;;5088433;28;20032;-68
2021/09/25 08:01:39;;;;;;;16.45;9.93;;;18.80;99.90;;;;;;5089361;28;20032;-68
2021/09/25 08:04:05;;;;;;;17.98;10.20;;;18.80;99.90;;;;;;5089557;28;20060;-68
2021/09/25 08:06:30;;;;;;;19.73;10.20;;;18.80;99.90;;;;;;5102477;28;20044;-68
2021/09/25 08:08:56;;;;;;;16.55;9.68;;;18.80;99.90;;;;;;5088622;28;20043;-67
2021/09/25 08:11:21;;;;;;;21.15;9.57;;;18.90;99.90;;;;;;5088551;28;20044;-67
2021/09/25 08:13:47;;;;;;;16.40;8.68;;;19.10;99.90;;;;;;5077554;28;20070;-68
2021/09/25 08:16:13;;;;;;;18.10;9.15;;;19.20;99.90;;;;;;5094310;28;20093;-68
2021/09/25 08:18:38;;;;;;;14.40;9.18;;;19.40;99.90;;;;;;5100416;28;20035;-68
2021/09/25 08:21:04;;;;;;;18.40;10.82;;;19.50;99.90;;;;;;5080135;28;20477;-68
2021/09/25 08:23:30;;;;;;;13.55;8.02;;;19.50;99.90;;;;;;5088955;28;20078;-68
2021/09/25 08:25:55;;;;;;;20.02;10.40;;;19.50;99.90;;;;;;5089402;28;20432;-68
2021/09/25 08:28:21;;;;;;;16.80;10.32;;;19.60;99.90;;;;;;5100030;28;20055;-68
2021/09/25 08:30:47;;;;;;;16.63;9.07;;;19.60;99.90;;;;;;5088862;28;20077;-68
2021/09/25 08:33:12;;;;;;;17.55;10.02;;;19.60;99.90;;;;;;5088325;28;20085;-68
2021/09/25 08:35:38;;;;;;;16.40;9.95;;;19.70;99.90;;;;;;5088888;28;20130;-68
2021/09/25 08:38:04;;;;;;;16.02;10.40;;;19.80;99.90;;;;;;5095741;28;20143;-68
2021/09/25 08:40:31;;;;;;;16.80;10.07;;;19.70;99.90;;;;;;5097641;28;20096;-68
2021/09/25 08:42:57;;;;;;;16.95;10.05;;;19.80;99.90;;;;;;5103419;28;20378;-68
2021/09/25 08:45:23;;;;;;;14.82;10.07;;;19.80;99.90;;;;;;5078702;28;20071;-67
2021/09/25 08:47:49;;;;;;;16.33;10.45;;;19.80;99.90;;;;;;5074976;28;20043;-67
2021/09/25 08:50:16;;;;;;;10.95;8.68;;;19.70;99.90;;;;;;5088085;28;20070;-67
2021/09/25 08:52:42;;;;;;;14.90;9.18;;;19.80;99.90;;;;;;5085500;28;20568;-68
2021/09/25 08:55:10;;;;;;;17.98;10.38;;;19.80;99.90;;;;;;5083803;28;20117;-68
2021/09/25 08:57:35;;;;;;;21.15;10.77;;;19.80;99.90;;;;;;5069781;28;20397;-68
2021/09/25 09:00:35;;;;;;;19.88;9.82;;;19.90;99.90;;;;;;5073417;28;20036;-68
2021/09/25 09:03:32;;;;;;;16.60;9.23;;;20.00;99.90;;;;;;5074318;28;20032;-68
2021/09/25 09:06:12;;;;;;;17.92;9.88;;;20.00;99.90;;;;;;5089862;22;20445;-70
2021/09/25 09:08:39;;;;;;;16.58;9.68;;;20.00;99.90;;;;;;5066600;28;20044;-71
2021/09/25 09:11:06;;;;;;;17.45;9.35;;;20.10;99.90;;;;;;5033173;28;20033;-70
2021/09/25 09:13:34;;;;;;;19.38;10.27;;;20.20;99.90;;;;;;5064958;28;20097;-68
2021/09/25 09:16:03;;;;;;;15.75;10.05;;;20.30;99.90;;;;;;5066702;28;20119;-70
2021/09/25 09:18:31;;;;;;;16.00;10.43;;;20.30;99.90;;;;;;5050525;28;20032;-70
2021/09/25 09:21:09;;;;;;;18.65;10.43;;;20.30;99.90;;;;;;5067957;28;20032;-70
2021/09/25 09:23:41;;;;;;;20.90;10.85;;;20.30;99.90;;;;;;5068289;28;20036;-70
2021/09/25 09:26:07;;;;;;;15.98;9.48;;;20.40;99.90;;;;;;5072899;28;20355;-70
2021/09/25 09:28:35;;;;;;;19.77;11.43;;;20.40;99.90;;;;;;5069622;28;20032;-70
2021/09/25 09:31:03;;;;;;;17.63;10.25;;;20.50;99.90;;;;;;5052284;28;20049;-70
2021/09/25 09:33:53;;;;;;;19.17;10.80;;;20.50;99.90;;;;;;5052959;28;20486;-71
2021/09/25 09:36:33;;;;;;;24.38;13.95;;;20.50;99.90;;;;;;5071049;28;20094;-70
2021/09/25 09:39:04;;;;;;;22.40;13.13;;;20.50;99.90;;;;;;5054809;28;20090;-70
2021/09/25 09:41:39;;;;;;;23.25;13.98;;;20.50;99.90;;;;;;5072379;28;20498;-69
2021/09/25 09:44:26;;;;;;;27.08;13.30;;;20.60;99.90;;;;;;5072754;28;20115;-70
2021/09/25 09:46:57;;;;;;;19.92;13.07;;;20.60;99.90;;;;;;5071669;28;20052;-70
2021/09/25 09:49:37;;;;;;;25.80;13.50;;;20.70;99.90;;;;;;5069931;28;20123;-70
2021/09/25 09:52:06;;;;;;;22.45;12.07;;;20.70;99.90;;;;;;5070462;28;20040;-69
2021/09/25 09:54:34;;;;;;;17.67;12.30;;;20.80;99.90;;;;;;5068703;28;20094;-69
2021/09/25 09:57:08;;;;;;;22.23;12.68;;;20.80;99.90;;;;;;5069235;28;20519;-69
2021/09/25 09:59:35;;;;;;;22.50;12.77;;;20.80;99.90;;;;;;5054160;28;20047;-68
2021/09/25 10:02:01;;;;;;;29.30;14.38;;;20.80;99.90;;;;;;5051638;28;20036;-68
2021/09/25 10:04:27;;;;;;;24.00;13.57;;;20.80;99.90;;;;;;5054529;28;20359;-68
2021/09/25 10:06:53;;;;;;;23.45;12.77;;;20.70;99.90;;;;;;5033844;28;20106;-68
2021/09/25 10:09:21;;;;;;;23.55;14.60;;;20.80;99.90;;;;;;5049411;28;20139;-68
2021/09/25 10:11:49;;;;;;;36.88;13.65;;;20.70;99.90;;;;;;5048673;28;20032;-68
2021/09/25 10:14:18;;;;;;;32.08;12.90;;;20.70;99.90;;;;;;5050974;28;20072;-69
2021/09/25 10:16:44;;;;;;;23.63;12.05;;;20.70;99.90;;;;;;5050689;28;20047;-68
2021/09/25 10:19:11;;;;;;;20.80;13.93;;;20.80;99.90;;;;;;5049541;28;20090;-69
2021/09/25 10:21:37;;;;;;;17.85;12.55;;;20.90;99.90;;;;;;5047118;28;20488;-68
2021/09/25 10:24:06;;;;;;;20.58;12.73;;;21.00;99.90;;;;;;5043807;28;20068;-68
2021/09/25 10:26:32;;;;;;;23.80;13.15;;;21.10;99.90;;;;;;5030964;28;20052;-68
2021/09/25 10:29:01;;;;;;;19.80;14.32;;;21.30;99.90;;;;;;5041971;28;20398;-68
2021/09/25 10:31:27;;;;;;;23.35;13.65;;;21.30;99.90;;;;;;5050707;28;20116;-68
2021/09/25 10:34:15;;;;;;;20.83;13.38;;;21.40;99.90;;;;;;5051222;28;20036;-69
2021/09/25 10:36:54;;;;;;;19.15;14.07;;;21.40;99.90;;;;;;5043818;28;20082;-68
2021/09/25 10:39:36;;;;;;;19.35;12.52;;;21.50;99.90;;;;;;5049864;28;20044;-67
2021/09/25 10:42:02;;;;;;;20.73;14.25;;;21.60;99.90;;;;;;5049308;28;20041;-67
2021/09/25 10:44:30;;;;;;;20.45;12.20;;;21.60;99.90;;;;;;5048879;28;20032;-67
2021/09/25 10:47:08;;;;;;;18.65;13.55;;;21.70;99.90;;;;;;5049350;28;20572;-67
2021/09/25 10:49:50;;;;;;;22.70;12.18;;;21.60;99.90;;;;;;5032456;28;20051;-67
2021/09/25 10:52:19;;;;;;;16.23;11.50;;;21.80;99.90;;;;;;5049521;28;20383;-67
2021/09/25 10:54:45;;;;;;;21.58;11.57;;;21.80;99.90;;;;;;5031446;28;20048;-68
2021/09/25 10:57:16;;;;;;;15.02;9.70;;;22.00;99.90;;;;;;5049440;28;20045;-68
2021/09/25 11:00:13;;;;;;;12.47;10.10;;;22.00;99.90;;;;;;5028498;28;20048;-67
2021/09/25 11:02:41;;;;;;;14.40;9.88;;;22.00;99.90;;;;;;5023364;28;20049;-68
2021/09/25 11:05:07;;;;;;;16.52;11.60;;;22.00;99.90;;;;;;5030331;28;20083;-68
2021/09/25 11:07:41;;;;;;;15.70;10.55;;;22.10;99.90;;;;;;5045202;28;20455;-68
2021/09/25 11:10:07;;;;;;;15.55;10.38;;;22.20;99.90;;;;;;5047363;28;20045;-66
2021/09/25 11:12:45;;;;;;;16.85;11.07;;;22.30;99.90;;;;;;5025068;28;20063;-68
2021/09/25 11:15:31;;;;;;;13.80;10.25;;;22.40;99.90;;;;;;5063272;28;20098;-67
2021/09/25 11:18:26;;;;;;;15.90;10.30;;;22.50;99.90;;;;;;5049790;28;20041;-67
2021/09/25 11:21:00;;;;;;;13.75;9.68;;;22.50;99.90;;;;;;5048202;28;20087;-67
2021/09/25 11:23:41;;;;;;;13.50;11.48;;;22.60;99.90;;;;;;5046581;28;20052;-68
2021/09/25 11:26:07;;;;;;;17.55;11.98;;;22.60;99.90;;;;;;5048292;28;20033;-68
2021/09/25 11:28:33;;;;;;;22.35;13.40;;;22.80;99.90;;;;;;5046770;28;20033;-68
2021/09/25 11:31:08;;;;;;;17.77;10.98;;;22.80;99.90;;;;;;5045369;28;20041;-70
2021/09/25 11:33:36;;;;;;;15.23;10.65;;;22.90;99.90;;;;;;5047685;28;20573;-70
2021/09/25 11:36:10;;;;;;;17.80;10.73;;;22.80;99.90;;;;;;5042552;28;20049;-70
2021/09/25 11:38:45;;;;;;;25.02;12.15;;;22.80;99.90;;;;;;5049952;28;20052;-70
2021/09/25 11:41:15;;;;;;;16.92;11.30;;;22.80;99.90;;;;;;5046610;28;20055;-70
2021/09/25 11:43:41;;;;;;;16.02;11.40;;;22.70;99.90;;;;;;5048507;28;20051;-70
2021/09/25 11:46:07;;;;;;;13.77;10.43;;;22.70;99.90;;;;;;5042454;28;20037;-70
2021/09/25 11:48:35;;;;;;;15.98;10.80;;;22.70;99.90;;;;;;5046253;28;20075;-70
2021/09/25 11:51:04;;;;;;;15.45;11.88;;;22.60;99.90;;;;;;5041871;28;20080;-70
2021/09/25 11:53:31;;;;;;;16.40;12.25;;;22.60;99.90;;;;;;5038982;28;20045;-70
2021/09/25 11:55:58;;;;;;;14.02;10.75;;;22.50;99.90;;;;;;5048690;28;20041;-70
2021/09/25 11:58:24;;;;;;;16.10;11.40;;;22.50;99.90;;;;;;5050334;28;20124;-70
2021/09/25 12:00:56;;;;;;;18.92;12.68;;;22.40;99.90;;;;;;5046300;28;20044;-70
2021/09/25 12:03:23;;;;;;;;;;;22.50;99.90;;;;;;5047783;28;20033;-70
2021/09/25 12:05:54;;;;;;;19.52;11.98;;;22.40;99.90;;;;;;5051102;28;19923;-70
2021/09/25 12:08:24;;;;;;;17.70;11.82;;;22.50;99.90;;;;;;5067475;28;20125;-70
2021/09/25 12:11:02;;;;;;;17.77;12.30;;;22.40;99.90;;;;;;5069235;28;20037;-70
2021/09/25 12:13:31;;;;;;;16.23;12.02;;;22.40;99.90;;;;;;5068233;28;20032;-70
2021/09/25 12:16:15;;;;;;;15.30;11.63;;;22.30;99.90;;;;;;5065825;28;20036;-71
2021/09/25 12:18:42;;;;;;;16.48;11.95;;;22.30;99.90;;;;;;5064315;28;20040;-69
2021/09/25 12:21:12;;;;;;;20.70;13.38;;;22.30;99.90;;;;;;5068136;28;20078;-70
2021/09/25 12:23:42;;;;;;;21.17;12.10;;;22.30;99.90;;;;;;5046581;28;20076;-68
2021/09/25 12:26:09;;;;;;;22.63;13.55;;;22.30;99.90;;;;;;5052628;28;20044;-71
2021/09/25 12:28:46;;;;;;;18.58;13.05;;;22.20;99.90;;;;;;5049992;28;20047;-71
2021/09/25 12:31:26;;;;;;;20.75;13.40;;;22.20;99.90;;;;;;5046518;28;20036;-71
2021/09/25 12:33:55;;;;;;;17.67;13.43;;;22.20;99.90;;;;;;5068311;28;20037;-71
2021/09/25 12:36:27;;;;;;;19.98;14.10;;;22.10;99.90;;;;;;5068193;28;20059;-71
2021/09/25 12:38:54;;;;;;;20.38;13.30;;;22.00;99.90;;;;;;5062652;28;20192;-72